createdAt,value
2018-09-18T00:01:42.230Z,101028.55
2018-09-18T00:04:12.484Z,101026.85
2018-09-18T00:06:42.186Z,101023.80
2018-09-18T00:09:12.280Z,101026.48
2018-09-18T00:11:42.229Z,101021.67
2018-09-18T00:14:11.909Z,101020.80
2018-09-18T00:16:41.673Z,101016.41
2018-09-18T00:19:11.394Z,101022.55
2018-09-18T00:21:41.033Z,101019.03
2018-09-18T00:24:10.759Z,101015.08
2018-09-18T00:26:40.589Z,101015.95
2018-09-18T00:29:10.359Z,101012.87
2018-09-18T00:31:40.081Z,101010.24
2018-09-18T00:34:09.859Z,101007.17
2018-09-18T00:36:39.541Z,101010.25
2018-09-18T00:39:10.245Z,101011.56
2018-09-18T00:41:39.958Z,101010.26
2018-09-18T00:44:09.764Z,101004.56
2018-09-18T00:46:39.636Z,101005.00
2018-09-18T00:49:09.380Z,101001.50
2018-09-18T00:51:39.102Z,100997.59
2018-09-18T00:54:09.204Z,101004.13
2018-09-18T00:56:38.916Z,100998.47
2018-09-18T00:59:08.679Z,101002.42
2018-09-18T01:01:38.360Z,101002.85
2018-09-18T01:04:08.112Z,100999.78
2018-09-18T01:06:37.809Z,100993.64
2018-09-18T01:09:10.006Z,100991.00
2018-09-18T01:11:39.928Z,100993.20
2018-09-18T01:14:09.771Z,100993.20
2018-09-18T01:16:39.515Z,100985.75
2018-09-18T01:19:09.263Z,100993.20
2018-09-18T01:21:39.017Z,100983.11
2018-09-18T01:24:08.769Z,100984.86
2018-09-18T01:26:38.469Z,100982.67
2018-09-18T01:29:08.181Z,100980.92
2018-09-18T01:31:37.899Z,100981.36
2018-09-18T01:34:07.599Z,100981.80
2018-09-18T01:36:37.329Z,100979.17
2018-09-18T01:39:09.339Z,100978.31
2018-09-18T01:41:39.436Z,100977.91
2018-09-18T01:44:09.472Z,100978.36
2018-09-18T01:46:39.419Z,100983.20
2018-09-18T01:49:09.109Z,100981.89
2018-09-18T01:51:38.823Z,100981.02
2018-09-18T01:54:08.766Z,100978.86
2018-09-18T01:56:38.173Z,100977.98
2018-09-18T01:59:07.613Z,100969.66
2018-09-18T02:01:37.224Z,100967.45
2018-09-18T02:04:06.652Z,100966.59
2018-09-18T02:06:36.043Z,100971.86
2018-09-18T02:09:06.914Z,100973.61
2018-09-18T02:11:36.342Z,100972.73
2018-09-18T02:14:05.748Z,100969.67
2018-09-18T02:16:35.216Z,100969.67
2018-09-18T02:19:04.666Z,100972.30
2018-09-18T02:21:34.103Z,100964.45
2018-09-18T02:24:03.552Z,100971.91
2018-09-18T02:26:33.247Z,100966.20
2018-09-18T02:29:02.696Z,100974.06
2018-09-18T02:31:32.172Z,100971.44
2018-09-18T02:34:01.578Z,100970.56
2018-09-18T02:36:31.022Z,100971.44
2018-09-18T02:39:00.612Z,100972.33
2018-09-18T02:41:30.064Z,100961.41
2018-09-18T02:43:59.471Z,100965.35
2018-09-18T02:46:28.940Z,100971.49
2018-09-18T02:48:58.348Z,100965.35
2018-09-18T02:51:27.755Z,100963.16
2018-09-18T02:53:57.196Z,100957.90
2018-09-18T02:56:26.609Z,100967.98
2018-09-18T02:58:56.012Z,100968.86
2018-09-18T03:01:25.729Z,100964.91
2018-09-18T03:03:55.137Z,100960.09
2018-09-18T03:06:24.535Z,100964.92
2018-09-18T03:08:53.938Z,100964.48
2018-09-18T03:11:23.376Z,100964.08
2018-09-18T03:13:52.787Z,100962.77
2018-09-18T03:16:22.358Z,100962.77
2018-09-18T03:18:51.752Z,100961.45
2018-09-18T03:21:21.180Z,100960.14
2018-09-18T03:23:50.639Z,100952.69
2018-09-18T03:26:20.035Z,100954.47
2018-09-18T03:28:49.412Z,100956.23
2018-09-18T03:33:47.511Z,100951.44
2018-09-18T03:36:16.940Z,100950.56
2018-09-18T03:38:46.423Z,100950.99
2018-09-18T03:41:15.826Z,100947.48
2018-09-18T03:43:45.228Z,100941.38
2018-09-18T03:46:14.785Z,100942.70
2018-09-18T03:48:44.238Z,100947.08
2018-09-18T03:51:13.641Z,100947.51
2018-09-18T03:53:43.196Z,100948.81
2018-09-18T03:56:12.644Z,100951.47
2018-09-18T03:58:42.046Z,100955.41
2018-09-18T04:01:11.612Z,100948.40
2018-09-18T04:03:41.056Z,100949.27
2018-09-18T04:06:10.458Z,100958.89
2018-09-18T04:08:39.904Z,100958.02
2018-09-18T04:11:09.303Z,100953.23
2018-09-18T04:13:38.725Z,100956.73
2018-09-18T04:16:08.185Z,100953.22
2018-09-18T04:18:37.592Z,100946.64
2018-09-18T04:21:07.159Z,100947.07
2018-09-18T04:23:36.747Z,100947.50
2018-09-18T04:26:06.585Z,100939.63
2018-09-18T04:28:36.001Z,100940.05
2018-09-18T04:31:05.677Z,100939.17
2018-09-18T04:33:35.080Z,100936.98
2018-09-18T04:36:04.536Z,100942.66
2018-09-18T04:38:33.973Z,100936.09
2018-09-18T04:41:03.459Z,100945.28
2018-09-18T04:43:32.855Z,100937.40
2018-09-18T04:46:02.381Z,100939.59
2018-09-18T04:48:31.732Z,100947.04
2018-09-18T04:51:01.145Z,100942.23
2018-09-18T04:53:30.613Z,100944.88
2018-09-18T04:56:00.207Z,100950.14
2018-09-18T04:58:29.632Z,100947.08
2018-09-18T05:00:59.223Z,100951.03
2018-09-18T05:03:28.637Z,100946.22
2018-09-18T05:05:58.073Z,100951.45
2018-09-18T05:08:27.543Z,100950.59
2018-09-18T05:10:56.936Z,100951.44
2018-09-18T05:13:26.335Z,100960.22
2018-09-18T05:15:55.750Z,100955.37
2018-09-18T05:18:25.172Z,100951.84
2018-09-18T05:20:54.580Z,100951.77
2018-09-18T05:23:24.184Z,100956.85
2018-09-18T05:25:53.599Z,100953.08
2018-09-18T05:28:23.015Z,100952.38
2018-09-18T05:30:52.438Z,100953.04
2018-09-18T05:33:21.925Z,100950.09
2018-09-18T05:35:51.448Z,100951.95
2018-09-18T05:38:20.927Z,100948.30
2018-09-18T05:40:50.332Z,100951.19
2018-09-18T05:43:19.728Z,100954.11
2018-09-18T05:45:49.179Z,100949.50
2018-09-18T05:48:18.710Z,100949.73
2018-09-18T05:50:48.085Z,100950.47
2018-09-18T05:53:17.941Z,100946.77
2018-09-18T05:55:47.536Z,100941.85
2018-09-18T05:58:16.992Z,100942.84
2018-09-18T06:00:46.579Z,100943.20
2018-09-18T06:03:15.997Z,100943.55
2018-09-18T06:05:45.431Z,100942.80
2018-09-18T06:08:14.848Z,100942.47
2018-09-18T06:10:44.255Z,100935.56
2018-09-18T06:13:13.635Z,100939.91
2018-09-18T06:15:43.068Z,100942.73
2018-09-18T06:18:12.516Z,100939.28
2018-09-18T06:20:42.156Z,100937.71
2018-09-18T06:23:11.565Z,100943.52
2018-09-18T06:25:40.962Z,100949.27
2018-09-18T06:28:10.881Z,100944.03
2018-09-18T06:30:40.644Z,100941.39
2018-09-18T06:33:10.208Z,100941.31
2018-09-18T06:35:39.603Z,100945.90
2018-09-18T06:38:09.104Z,100934.95
2018-09-18T06:40:38.503Z,100941.28
2018-09-18T06:43:07.908Z,100936.44
2018-09-18T06:45:37.310Z,100940.52
2018-09-18T06:48:06.775Z,100934.58
2018-09-18T06:50:36.188Z,100931.20
2018-09-18T06:53:05.616Z,100932.81
2018-09-18T06:55:35.004Z,100936.59
2018-09-18T06:58:04.468Z,100940.75
2018-09-18T07:00:33.924Z,100938.86
2018-09-18T07:03:03.406Z,100936.14
2018-09-18T07:05:32.831Z,100940.26
2018-09-18T07:08:02.358Z,100939.84
2018-09-18T07:10:31.796Z,100931.14
2018-09-18T07:13:01.152Z,100940.45
2018-09-18T07:15:30.591Z,100933.88
2018-09-18T07:18:00.141Z,100939.38
2018-09-18T07:20:29.532Z,100933.45
2018-09-18T07:22:59.176Z,100934.85
2018-09-18T07:25:28.602Z,100929.77
2018-09-18T07:27:58.127Z,100935.90
2018-09-18T07:30:27.527Z,100938.82
2018-09-18T07:32:56.963Z,100936.66
2018-09-18T07:35:26.367Z,100934.63
2018-09-18T07:37:55.803Z,100938.45
2018-09-18T07:40:25.231Z,100933.86
2018-09-18T07:42:54.627Z,100925.61
2018-09-18T07:45:24.185Z,100926.56
2018-09-18T07:47:53.577Z,100928.85
2018-09-18T07:50:22.995Z,100927.61
2018-09-18T07:52:52.515Z,100927.60
2018-09-18T07:55:21.995Z,100927.84
2018-09-18T07:57:51.424Z,100923.74
2018-09-18T08:00:20.897Z,100921.09
2018-09-18T08:02:50.344Z,100923.67
2018-09-18T08:05:19.769Z,100928.25
2018-09-18T08:07:49.364Z,100921.03
2018-09-18T08:10:18.830Z,100915.91
2018-09-18T08:12:48.255Z,100910.28
2018-09-18T08:15:17.733Z,100917.98
2018-09-18T08:17:47.155Z,100913.06
2018-09-18T08:20:16.546Z,100912.72
2018-09-18T08:22:46.192Z,100920.28
2018-09-18T08:25:15.645Z,100908.95
2018-09-18T08:27:45.072Z,100920.66
2018-09-18T08:30:14.525Z,100913.55
2018-09-18T08:32:44.132Z,100908.37
2018-09-18T08:35:13.420Z,100911.41
2018-09-18T08:37:42.848Z,100910.91
2018-09-18T08:40:12.368Z,100909.44
2018-09-18T08:42:41.809Z,100907.69
2018-09-18T08:45:11.432Z,100905.03
2018-09-18T08:47:40.883Z,100899.02
2018-09-18T08:50:10.318Z,100899.92
2018-09-18T08:52:39.846Z,100904.61
2018-09-18T08:55:09.521Z,100901.37
2018-09-18T08:57:39.072Z,100904.67
2018-09-18T09:00:08.457Z,100904.31
2018-09-18T09:02:39.070Z,100903.42
2018-09-18T09:05:08.521Z,100901.05
2018-09-18T09:07:38.013Z,100902.13
2018-09-18T09:10:07.431Z,100898.07
2018-09-18T09:12:36.862Z,100901.13
2018-09-18T09:15:06.470Z,100901.22
2018-09-18T09:17:35.961Z,100901.19
2018-09-18T09:20:05.461Z,100894.88
2018-09-18T09:22:35.010Z,100883.56
2018-09-18T09:25:04.325Z,100878.26
2018-09-18T09:27:33.778Z,100872.89
2018-09-18T09:30:03.305Z,100869.88
2018-09-18T09:32:32.723Z,100874.08
2018-09-18T09:35:02.150Z,100871.58
2018-09-18T09:37:31.563Z,100872.59
2018-09-18T09:40:00.960Z,100865.09
2018-09-18T09:42:30.419Z,100859.34
2018-09-18T09:44:59.913Z,100870.52
2018-09-18T09:47:29.241Z,100865.27
2018-09-18T09:49:58.723Z,100852.39
2018-09-18T09:52:28.152Z,100861.97
2018-09-18T09:54:57.551Z,100861.63
2018-09-18T09:57:26.970Z,100859.64
2018-09-18T09:59:56.480Z,100857.73
2018-09-18T10:02:29.275Z,100850.52
2018-09-18T10:04:59.748Z,100843.94
2018-09-18T10:07:29.148Z,100838.80
2018-09-18T10:09:58.634Z,100838.16
2018-09-18T10:12:28.040Z,100837.34
2018-09-18T10:14:57.599Z,100840.54
2018-09-18T10:17:26.990Z,100836.02
2018-09-18T10:19:56.425Z,100828.19
2018-09-18T10:22:25.836Z,100819.70
2018-09-18T10:24:55.323Z,100818.06
2018-09-18T10:27:24.726Z,100807.86
2018-09-18T10:29:55.971Z,100810.75
2018-09-18T10:32:25.479Z,100809.07
2018-09-18T10:34:55.016Z,100801.55
2018-09-18T10:37:24.343Z,100806.78
2018-09-18T10:39:53.928Z,100799.63
2018-09-18T10:42:23.389Z,100799.89
2018-09-18T10:44:52.828Z,100794.86
2018-09-18T10:47:22.437Z,100781.73
2018-09-18T10:49:51.875Z,100792.10
2018-09-18T10:52:21.318Z,100785.63
2018-09-18T10:54:50.754Z,100789.25
2018-09-18T10:57:20.199Z,100777.56
2018-09-18T10:59:49.636Z,100775.59
2018-09-18T11:02:19.314Z,100785.20
2018-09-18T11:04:48.790Z,100780.45
2018-09-18T11:07:18.309Z,100772.94
2018-09-18T11:09:47.860Z,100772.37
2018-09-18T11:12:17.281Z,100765.06
2018-09-18T11:14:46.702Z,100754.92
2018-09-18T11:17:16.156Z,100747.52
2018-09-18T11:19:45.696Z,100764.79
2018-09-18T11:22:15.116Z,100756.65
2018-09-18T11:24:44.602Z,100752.41
2018-09-18T11:27:14.093Z,100759.22
2018-09-18T11:32:31.176Z,100749.91
2018-09-18T11:35:00.663Z,100743.91
2018-09-18T11:37:30.086Z,100748.05
2018-09-18T11:39:59.512Z,100749.83
2018-09-18T11:42:28.927Z,100753.32
2018-09-18T11:44:58.376Z,100745.15
2018-09-18T11:47:27.816Z,100735.29
2018-09-18T11:49:57.276Z,100734.04
2018-09-18T11:52:26.705Z,100737.02
2018-09-18T11:54:56.152Z,100733.46
2018-09-18T11:57:25.552Z,100742.39
2018-09-18T11:59:54.954Z,100732.12
2018-09-18T12:02:24.418Z,100721.36
2018-09-18T12:04:54.106Z,100722.80
2018-09-18T12:07:23.512Z,100724.34
2018-09-18T12:09:52.907Z,100717.71
2018-09-18T12:12:22.476Z,100714.93
2018-09-18T12:14:51.880Z,100714.35
2018-09-18T12:17:21.328Z,100728.37
2018-09-18T12:19:50.742Z,100713.01
2018-09-18T12:22:20.211Z,100701.16
2018-09-18T12:24:49.628Z,100698.77
2018-09-18T12:27:19.246Z,100702.51
2018-09-18T12:29:48.828Z,100696.55
2018-09-18T12:32:18.438Z,100699.62
2018-09-18T12:34:47.844Z,100689.92
2018-09-18T12:37:17.290Z,100692.81
2018-09-18T12:39:46.835Z,100683.40
2018-09-18T12:42:16.326Z,100687.81
2018-09-18T12:44:45.703Z,100691.75
2018-09-18T12:47:15.148Z,100682.72
2018-09-18T12:49:44.890Z,100682.72
2018-09-18T12:52:14.134Z,100678.30
2018-09-18T12:54:43.681Z,100668.03
2018-09-18T12:57:13.311Z,100661.41
2018-09-18T12:59:42.607Z,100667.64
2018-09-18T13:02:12.210Z,100658.52
2018-09-18T13:04:41.663Z,100664.66
2018-09-18T13:07:11.066Z,100647.08
2018-09-18T13:09:40.509Z,100650.50
2018-09-18T13:12:09.932Z,100648.10
2018-09-18T13:14:39.334Z,100637.91
2018-09-18T13:17:08.753Z,100636.95
2018-09-18T13:19:38.164Z,100634.16
2018-09-18T13:22:07.593Z,100629.54
2018-09-18T13:24:37.044Z,100630.20
2018-09-18T13:27:06.449Z,100629.14
2018-09-18T13:29:35.869Z,100623.76
2018-09-18T13:32:05.327Z,100619.63
2018-09-18T13:34:34.738Z,100613.28
2018-09-18T13:37:04.280Z,100619.42
2018-09-18T13:39:33.740Z,100615.88
2018-09-18T13:42:03.168Z,100616.35
2018-09-18T13:44:32.617Z,100612.42
2018-09-18T13:47:02.055Z,100614.91
2018-09-18T13:49:31.482Z,100613.66
2018-09-18T13:52:00.983Z,100610.01
2018-09-18T13:54:30.355Z,100600.11
2018-09-18T13:56:59.837Z,100605.39
2018-09-18T13:59:29.295Z,100607.02
2018-09-18T14:01:59.805Z,100602.26
2018-09-18T14:04:29.294Z,100594.56
2018-09-18T14:06:58.817Z,100600.33
2018-09-18T14:09:28.529Z,100601.47
2018-09-18T14:11:57.870Z,100600.03
2018-09-18T14:14:27.410Z,100594.75
2018-09-18T14:16:56.824Z,100589.36
2018-09-18T14:19:26.275Z,100586.19
2018-09-18T14:21:55.709Z,100589.54
2018-09-18T14:24:25.349Z,100596.06
2018-09-18T14:26:54.775Z,100589.34
2018-09-18T14:29:24.156Z,100587.13
2018-09-18T14:31:53.615Z,100584.53
2018-09-18T14:34:23.086Z,100580.50
2018-09-18T14:36:52.547Z,100585.16
2018-09-18T14:39:21.978Z,100584.68
2018-09-18T14:41:51.417Z,100580.27
2018-09-18T14:44:20.840Z,100583.09
2018-09-18T14:46:50.384Z,100570.12
2018-09-18T14:49:19.823Z,100573.77
2018-09-18T14:51:49.274Z,100574.84
2018-09-18T14:54:18.762Z,100572.94
2018-09-18T14:56:48.257Z,100572.08
2018-09-18T14:59:17.677Z,100573.14
2018-09-18T15:01:47.134Z,100576.59
2018-09-18T15:04:16.596Z,100569.59
2018-09-18T15:06:46.021Z,100566.66
2018-09-18T15:09:15.485Z,100566.86
2018-09-18T15:11:44.889Z,100565.13
2018-09-18T15:14:14.430Z,100563.02
2018-09-18T15:16:44.041Z,100561.40
2018-09-18T15:19:13.473Z,100565.64
2018-09-18T15:21:43.003Z,100567.19
2018-09-18T15:24:12.381Z,100560.66
2018-09-18T15:26:41.820Z,100559.90
2018-09-18T15:29:11.278Z,100559.23
2018-09-18T15:31:40.724Z,100550.99
2018-09-18T15:34:10.147Z,100554.88
2018-09-18T15:36:39.562Z,100558.25
2018-09-18T15:39:09.611Z,100560.75
2018-09-18T15:41:39.053Z,100559.74
2018-09-18T15:44:08.623Z,100554.77
2018-09-18T15:46:38.109Z,100560.34
2018-09-18T15:49:07.536Z,100561.98
2018-09-18T15:51:37.029Z,100562.78
2018-09-18T15:54:06.765Z,100560.11
2018-09-18T15:56:36.389Z,100565.39
2018-09-18T15:59:05.859Z,100559.44
2018-09-18T16:01:35.321Z,100559.25
2018-09-18T16:04:04.779Z,100556.66
2018-09-18T16:06:34.222Z,100559.58
2018-09-18T16:09:04.145Z,100563.13
2018-09-18T16:11:33.700Z,100560.83
2018-09-18T16:14:03.112Z,100564.41
2018-09-18T16:16:32.709Z,100561.80
2018-09-18T16:19:02.102Z,100555.69
2018-09-18T16:21:31.566Z,100563.77
2018-09-18T16:24:01.188Z,100563.34
2018-09-18T16:26:30.619Z,100560.86
2018-09-18T16:29:00.067Z,100555.08
2018-09-18T16:31:29.491Z,100554.80
2018-09-18T16:33:58.941Z,100554.04
2018-09-18T16:36:28.358Z,100556.78
2018-09-18T16:38:57.920Z,100558.13
2018-09-18T16:41:27.406Z,100556.73
2018-09-18T16:43:56.827Z,100558.16
2018-09-18T16:46:26.431Z,100552.46
2018-09-18T16:48:55.885Z,100550.25
2018-09-18T16:51:25.340Z,100553.20
2018-09-18T16:53:54.796Z,100552.41
2018-09-18T16:56:24.270Z,100548.16
2018-09-18T16:58:53.757Z,100549.20
2018-09-18T17:01:23.279Z,100550.78
2018-09-18T17:03:52.722Z,100556.20
2018-09-18T17:06:22.193Z,100557.88
2018-09-18T17:08:51.781Z,100558.57
2018-09-18T17:11:21.321Z,100560.05
2018-09-18T17:13:50.774Z,100561.40
2018-09-18T17:16:20.195Z,100565.90
2018-09-18T17:18:49.622Z,100560.16
2018-09-18T17:21:19.075Z,100563.83
2018-09-18T17:23:48.730Z,100572.36
2018-09-18T17:26:18.182Z,100564.72
2018-09-18T17:28:47.780Z,100568.77
2018-09-18T17:31:17.081Z,100571.03
2018-09-18T17:33:46.556Z,100571.42
2018-09-18T17:36:16.009Z,100571.33
2018-09-18T17:38:45.635Z,100574.81
2018-09-18T17:41:15.054Z,100571.57
2018-09-18T17:43:44.460Z,100571.44
2018-09-18T17:46:13.929Z,100573.14
2018-09-18T17:48:43.528Z,100574.88
2018-09-18T17:51:13.208Z,100576.11
2018-09-18T17:53:42.718Z,100580.52
2018-09-18T17:56:12.120Z,100581.75
2018-09-18T17:58:41.570Z,100583.05
2018-09-18T18:01:11.701Z,100583.40
2018-09-18T18:03:41.139Z,100581.91
2018-09-18T18:06:10.536Z,100584.53
2018-09-18T18:08:40.103Z,100577.38
2018-09-18T18:11:09.524Z,100588.34
2018-09-18T18:13:39.029Z,100587.38
2018-09-18T18:16:09.278Z,100586.85
2018-09-18T18:18:38.716Z,100583.16
2018-09-18T18:21:08.328Z,100585.95
2018-09-18T18:23:37.810Z,100580.75
2018-09-18T18:26:07.212Z,100585.76
2018-09-18T18:28:36.599Z,100586.02
2018-09-18T18:31:06.021Z,100585.83
2018-09-18T18:33:35.449Z,100581.62
2018-09-18T18:36:04.880Z,100585.12
2018-09-18T18:38:34.588Z,100587.17
2018-09-18T18:41:04.132Z,100583.60
2018-09-18T18:43:33.577Z,100586.05
2018-09-18T18:46:03.056Z,100595.28
2018-09-18T18:48:32.708Z,100601.39
2018-09-18T18:51:02.093Z,100594.14
2018-09-18T18:53:31.548Z,100597.48
2018-09-18T18:56:00.983Z,100599.56
2018-09-18T18:58:30.486Z,100596.34
2018-09-18T19:00:59.932Z,100600.67
2018-09-18T19:03:29.651Z,100603.70
2018-09-18T19:05:59.095Z,100605.19
2018-09-18T19:08:28.643Z,100612.48
2018-09-18T19:10:58.070Z,100613.93
2018-09-18T19:13:27.513Z,100610.58
2018-09-18T19:15:56.963Z,100609.52
2018-09-18T19:18:26.509Z,100612.00
2018-09-18T19:20:55.976Z,100609.14
2018-09-18T19:23:25.477Z,100606.21
2018-09-18T19:25:54.853Z,100610.37
2018-09-18T19:28:24.216Z,100612.89
2018-09-18T19:30:53.901Z,100605.19
2018-09-18T19:33:23.865Z,100620.02
2018-09-18T19:35:53.104Z,100613.53
2018-09-18T19:38:22.564Z,100614.11
2018-09-18T19:40:51.967Z,100617.89
2018-09-18T19:43:21.597Z,100608.80
2018-09-18T19:45:51.035Z,100614.69
2018-09-18T19:48:20.493Z,100607.83
2018-09-18T19:50:49.843Z,100617.70
2018-09-18T19:53:19.329Z,100612.54
2018-09-18T19:55:48.735Z,100611.00
2018-09-18T19:58:18.187Z,100608.95
2018-09-18T20:00:47.628Z,100615.31
2018-09-18T20:03:17.131Z,100615.55
2018-09-18T20:05:46.471Z,100620.16
2018-09-18T20:08:16.448Z,100620.27
2018-09-18T20:10:45.963Z,100613.80
2018-09-18T20:13:15.365Z,100621.92
2018-09-18T20:15:44.969Z,100622.90
2018-09-18T20:18:14.435Z,100620.84
2018-09-18T20:20:44.098Z,100624.05
2018-09-18T20:23:13.739Z,100621.48
2018-09-18T20:25:43.151Z,100618.02
2018-09-18T20:28:12.612Z,100614.08
2018-09-18T20:30:42.226Z,100622.09
2018-09-18T20:33:11.628Z,100627.92
2018-09-18T20:35:41.080Z,100628.89
2018-09-18T20:38:10.499Z,100638.27
2018-09-18T20:40:39.921Z,100626.82
2018-09-18T20:43:09.299Z,100629.98
2018-09-18T20:45:38.716Z,100634.06
2018-09-18T20:48:08.131Z,100638.61
2018-09-18T20:50:37.683Z,100640.44
2018-09-18T20:53:07.116Z,100640.20
2018-09-18T20:55:36.545Z,100636.36
2018-09-18T20:58:05.976Z,100633.43
2018-09-18T21:00:35.480Z,100634.02
2018-09-18T21:03:04.962Z,100634.95
2018-09-18T21:05:34.350Z,100642.14
2018-09-18T21:08:03.884Z,100636.05
2018-09-18T21:10:33.473Z,100634.72
2018-09-18T21:13:02.959Z,100637.01
2018-09-18T21:15:32.395Z,100641.57
2018-09-18T21:18:01.809Z,100633.79
2018-09-18T21:20:31.212Z,100633.92
2018-09-18T21:23:00.673Z,100635.42
2018-09-18T21:26:13.005Z,100638.20
2018-09-18T21:28:42.615Z,100638.75
2018-09-18T21:31:12.028Z,100645.88
2018-09-18T21:33:41.433Z,100636.22
2018-09-18T21:36:10.854Z,100641.11
2018-09-18T21:38:40.345Z,100643.69
2018-09-18T21:41:09.733Z,100637.13
2018-09-18T21:43:39.211Z,100634.06
2018-09-18T21:46:08.699Z,100640.74
2018-09-18T21:48:38.181Z,100634.65
2018-09-18T21:51:07.684Z,100636.94
2018-09-18T21:53:37.165Z,100644.89
2018-09-18T21:56:06.629Z,100646.77
2018-09-18T21:58:36.066Z,100646.34
2018-09-18T22:01:06.677Z,100641.91
2018-09-18T22:03:36.442Z,100639.72
2018-09-18T22:06:05.841Z,100643.70
2018-09-18T22:08:36.756Z,100644.69
2018-09-18T22:11:06.371Z,100646.05
2018-09-18T22:13:35.842Z,100643.94
2018-09-18T22:18:54.297Z,100645.34
2018-09-18T22:21:23.726Z,100648.09
2018-09-18T22:23:53.171Z,100649.45
2018-09-18T22:26:22.600Z,100646.92
2018-09-18T22:28:52.027Z,100646.09
2018-09-18T22:31:21.461Z,100647.95
2018-09-18T22:33:50.857Z,100637.88
2018-09-18T22:36:20.348Z,100645.84
2018-09-18T22:38:49.741Z,100645.96
2018-09-18T22:41:19.144Z,100646.00
2018-09-18T22:43:48.658Z,100645.67
2018-09-18T22:46:18.056Z,100645.25
2018-09-18T22:48:47.488Z,100648.36
2018-09-18T22:51:16.920Z,100647.08
2018-09-18T22:53:46.320Z,100647.53
2018-09-18T22:56:15.752Z,100645.38
2018-09-18T22:58:45.203Z,100642.72
2018-09-18T23:01:14.681Z,100645.03
2018-09-18T23:03:44.089Z,100650.00
2018-09-18T23:06:13.802Z,100645.23
2018-09-18T23:08:43.537Z,100642.20
2018-09-18T23:11:12.963Z,100638.83
2018-09-18T23:13:42.541Z,100648.64
2018-09-18T23:16:11.945Z,100644.32
2018-09-18T23:18:41.353Z,100651.06
2018-09-18T23:21:10.832Z,100653.41
2018-09-18T23:23:40.328Z,100653.09
2018-09-18T23:26:09.808Z,100647.49
2018-09-18T23:28:39.296Z,100648.51
2018-09-18T23:31:08.827Z,100650.78
2018-09-18T23:33:38.281Z,100656.14
2018-09-18T23:36:07.755Z,100653.57
2018-09-18T23:38:37.208Z,100658.48
2018-09-18T23:41:06.838Z,100656.39
2018-09-18T23:43:36.275Z,100666.12
2018-09-18T23:46:05.660Z,100664.37
2018-09-18T23:48:35.101Z,100660.44
2018-09-18T23:51:04.543Z,100665.80
2018-09-18T23:53:33.923Z,100669.78
2018-09-18T23:56:03.302Z,100671.59
2018-09-18T23:58:32.933Z,100675.17
